createdAt,value
2018-12-23T00:00:55.674Z,0.00
2018-12-23T00:01:56.175Z,0.00
2018-12-23T00:02:56.722Z,0.00
2018-12-23T00:03:57.199Z,0.00
2018-12-23T00:04:57.748Z,0.00
2018-12-23T00:05:58.245Z,0.00
2018-12-23T00:06:58.719Z,0.00
2018-12-23T00:07:59.216Z,0.00
2018-12-23T00:08:59.704Z,0.00
2018-12-23T00:10:00.325Z,0.00
2018-12-23T00:11:01.771Z,0.00
2018-12-23T00:12:02.257Z,0.00
2018-12-23T00:13:02.811Z,0.00
2018-12-23T00:14:03.295Z,0.00
2018-12-23T00:15:03.782Z,0.00
2018-12-23T00:16:04.266Z,0.00
2018-12-23T00:17:12.364Z,0.00
2018-12-23T00:18:12.839Z,0.00
2018-12-23T00:19:15.440Z,0.00
2018-12-23T00:20:15.933Z,0.00
2018-12-23T00:21:16.467Z,0.00
2018-12-23T00:22:16.948Z,0.00
2018-12-23T00:23:17.610Z,0.00
2018-12-23T00:24:18.085Z,0.00
2018-12-23T00:25:18.651Z,0.00
2018-12-23T00:26:19.213Z,0.00
2018-12-23T00:27:26.440Z,0.00
2018-12-23T00:28:26.917Z,0.00
2018-12-23T00:29:29.533Z,0.00
2018-12-23T00:30:30.013Z,0.00
2018-12-23T00:31:30.564Z,0.00
2018-12-23T00:32:31.047Z,0.00
2018-12-23T00:33:31.516Z,0.00
2018-12-23T00:34:32.015Z,0.00
2018-12-23T00:35:32.493Z,0.00
2018-12-23T00:36:40.946Z,0.00
2018-12-23T00:37:41.425Z,0.00
2018-12-23T00:38:48.831Z,0.00
2018-12-23T00:39:49.316Z,0.00
2018-12-23T00:40:50.901Z,0.00
2018-12-23T00:41:51.369Z,0.00
2018-12-23T00:42:51.946Z,0.00
2018-12-23T00:43:52.406Z,0.00
2018-12-23T00:44:52.977Z,0.00
2018-12-23T00:45:53.463Z,0.00
2018-12-23T00:46:54.007Z,0.00
2018-12-23T00:47:54.489Z,0.00
2018-12-23T00:48:55.049Z,0.00
2018-12-23T00:49:55.524Z,0.00
2018-12-23T00:50:56.084Z,0.00
2018-12-23T00:51:56.559Z,0.00
2018-12-23T00:52:57.042Z,0.00
2018-12-23T00:53:57.550Z,0.00
2018-12-23T00:54:58.005Z,0.00
2018-12-23T00:55:58.473Z,0.00
2018-12-23T00:56:58.960Z,0.00
2018-12-23T00:57:59.443Z,0.00
2018-12-23T00:58:59.910Z,0.00
2018-12-23T01:00:00.401Z,0.00
2018-12-23T01:01:00.966Z,0.00
2018-12-23T01:02:01.527Z,0.00
2018-12-23T01:03:02.022Z,0.00
2018-12-23T01:04:02.504Z,0.00
2018-12-23T01:05:02.990Z,0.00
2018-12-23T01:06:03.493Z,0.00
2018-12-23T01:07:03.955Z,0.00
2018-12-23T01:08:04.436Z,0.00
2018-12-23T01:09:04.916Z,0.00
2018-12-23T01:10:05.400Z,0.00
2018-12-23T01:11:05.893Z,0.00
2018-12-23T01:12:06.386Z,0.00
2018-12-23T01:13:06.856Z,0.00
2018-12-23T01:14:07.339Z,0.00
2018-12-23T01:15:07.932Z,0.00
2018-12-23T01:16:08.406Z,0.00
2018-12-23T01:17:08.894Z,0.00
2018-12-23T01:18:09.384Z,0.00
2018-12-23T01:19:09.866Z,0.00
2018-12-23T01:20:10.417Z,0.00
2018-12-23T01:21:10.908Z,0.00
2018-12-23T01:22:11.384Z,0.00
2018-12-23T01:23:11.870Z,0.00
2018-12-23T01:24:12.346Z,0.00
2018-12-23T01:25:12.834Z,0.00
2018-12-23T01:26:13.311Z,0.00
2018-12-23T01:27:13.946Z,0.00
2018-12-23T01:28:14.425Z,0.00
2018-12-23T01:29:16.017Z,0.00
2018-12-23T01:30:16.503Z,0.00
2018-12-23T01:31:16.973Z,0.00
2018-12-23T01:32:17.534Z,0.00
2018-12-23T01:33:18.012Z,0.00
2018-12-23T01:34:18.499Z,0.00
2018-12-23T01:35:18.985Z,0.00
2018-12-23T01:36:19.510Z,0.00
2018-12-23T01:37:20.000Z,0.00
2018-12-23T01:38:20.543Z,0.00
2018-12-23T01:39:23.800Z,0.00
2018-12-23T01:40:24.295Z,0.00
2018-12-23T01:41:24.867Z,0.00
2018-12-23T01:42:25.357Z,0.00
2018-12-23T01:43:25.825Z,0.00
2018-12-23T01:44:26.315Z,0.00
2018-12-23T01:45:26.840Z,0.00
2018-12-23T01:46:27.324Z,0.00
2018-12-23T01:47:27.819Z,0.00
2018-12-23T01:48:28.395Z,0.00
2018-12-23T01:49:28.893Z,0.00
2018-12-23T01:50:29.399Z,0.00
2018-12-23T01:51:29.888Z,0.00
2018-12-23T01:52:30.476Z,0.00
2018-12-23T01:53:30.995Z,0.00
2018-12-23T01:54:31.511Z,0.00
2018-12-23T01:55:32.294Z,0.00
2018-12-23T01:56:32.563Z,0.00
2018-12-23T01:57:33.040Z,0.00
2018-12-23T01:58:33.595Z,0.00
2018-12-23T01:59:34.059Z,0.00
2018-12-23T02:00:34.629Z,0.00
2018-12-23T02:01:35.121Z,0.00
2018-12-23T02:02:35.671Z,0.00
2018-12-23T02:03:36.165Z,0.00
2018-12-23T02:04:36.703Z,0.00
2018-12-23T02:05:45.869Z,0.00
2018-12-23T02:06:37.673Z,0.00
2018-12-23T02:07:38.260Z,0.00
2018-12-23T02:08:38.747Z,0.00
2018-12-23T02:09:39.298Z,0.00
2018-12-23T02:10:39.768Z,0.00
2018-12-23T02:11:40.337Z,0.00
2018-12-23T02:12:40.807Z,0.00
2018-12-23T02:13:41.377Z,0.00
2018-12-23T02:14:41.857Z,0.00
2018-12-23T02:15:42.410Z,0.00
2018-12-23T02:16:42.888Z,0.00
2018-12-23T02:17:43.446Z,0.00
2018-12-23T02:18:43.933Z,0.00
2018-12-23T02:19:44.487Z,0.00
2018-12-23T02:20:44.960Z,0.00
2018-12-23T02:21:45.528Z,0.00
2018-12-23T02:22:46.121Z,0.00
2018-12-23T02:23:46.766Z,0.00
2018-12-23T02:24:47.253Z,0.00
2018-12-23T02:25:47.810Z,0.00
2018-12-23T02:26:48.297Z,0.00
2018-12-23T02:27:48.845Z,0.00
2018-12-23T02:28:49.323Z,0.00
2018-12-23T02:29:49.884Z,0.00
2018-12-23T02:30:50.376Z,0.00
2018-12-23T02:31:50.927Z,0.00
2018-12-23T02:32:51.509Z,0.00
2018-12-23T02:33:51.951Z,0.00
2018-12-23T02:34:52.439Z,0.00
2018-12-23T02:35:55.753Z,0.00
2018-12-23T02:36:53.476Z,0.00
2018-12-23T02:37:54.031Z,0.00
2018-12-23T02:38:54.520Z,0.00
2018-12-23T02:39:55.067Z,0.00
2018-12-23T02:40:55.586Z,0.00
2018-12-23T02:41:56.106Z,0.00
2018-12-23T02:42:56.889Z,0.00
2018-12-23T02:43:57.779Z,0.00
2018-12-23T02:44:58.250Z,0.00
2018-12-23T02:45:58.897Z,0.00
2018-12-23T02:46:59.390Z,0.00
2018-12-23T02:47:59.889Z,0.00
2018-12-23T02:49:01.478Z,0.00
2018-12-23T02:50:01.967Z,0.00
2018-12-23T02:51:18.371Z,0.00
2018-12-23T02:52:18.859Z,0.00
2018-12-23T02:53:27.390Z,0.00
2018-12-23T02:54:27.880Z,0.00
2018-12-23T02:55:45.441Z,0.00
2018-12-23T02:56:45.922Z,0.00
2018-12-23T02:57:46.474Z,0.00
2018-12-23T02:58:46.977Z,0.00
2018-12-23T03:00:02.363Z,0.00
2018-12-23T03:01:02.928Z,0.00
2018-12-23T03:02:03.396Z,0.00
2018-12-23T03:03:03.874Z,0.00
2018-12-23T03:04:05.460Z,0.00
2018-12-23T03:05:05.936Z,0.00
2018-12-23T03:06:06.554Z,0.00
2018-12-23T03:07:06.974Z,0.00
2018-12-23T03:08:07.555Z,0.00
2018-12-23T03:09:08.020Z,0.00
2018-12-23T03:10:08.579Z,0.00
2018-12-23T03:11:09.055Z,0.00
2018-12-23T03:12:09.601Z,0.00
2018-12-23T03:13:10.108Z,0.00
2018-12-23T03:14:10.652Z,0.00
2018-12-23T03:15:11.196Z,0.00
2018-12-23T03:16:11.614Z,0.00
2018-12-23T03:17:12.119Z,0.00
2018-12-23T03:18:12.590Z,0.00
2018-12-23T03:19:13.068Z,0.00
2018-12-23T03:20:13.552Z,0.00
2018-12-23T03:21:15.098Z,0.00
2018-12-23T03:22:15.595Z,0.00
2018-12-23T03:23:16.146Z,0.00
2018-12-23T03:24:16.617Z,0.00
2018-12-23T03:25:17.184Z,0.00
2018-12-23T03:26:17.648Z,0.00
2018-12-23T03:27:18.132Z,0.00
2018-12-23T03:28:19.762Z,0.00
2018-12-23T03:29:20.290Z,0.00
2018-12-23T03:30:20.988Z,0.00
2018-12-23T03:31:21.327Z,0.00
2018-12-23T03:32:21.838Z,0.00
2018-12-23T03:33:22.311Z,0.00
2018-12-23T03:34:22.792Z,0.00
2018-12-23T03:35:23.264Z,0.00
2018-12-23T03:36:23.771Z,0.00
2018-12-23T03:37:24.242Z,0.00
2018-12-23T03:38:24.728Z,0.00
2018-12-23T03:39:39.815Z,0.00
2018-12-23T03:40:40.375Z,0.00
2018-12-23T03:41:40.851Z,0.00
2018-12-23T03:42:41.332Z,0.00
2018-12-23T03:43:41.814Z,0.00
2018-12-23T03:44:42.294Z,0.00
2018-12-23T03:45:42.880Z,0.00
2018-12-23T03:46:43.345Z,0.00
2018-12-23T03:47:43.878Z,0.00
2018-12-23T03:48:44.324Z,0.00
2018-12-23T03:49:44.830Z,0.00
2018-12-23T03:50:46.399Z,0.00
2018-12-23T03:51:46.889Z,0.00
2018-12-23T03:52:47.428Z,0.00
2018-12-23T03:53:47.923Z,0.00
2018-12-23T03:54:48.396Z,0.00
2018-12-23T03:55:48.889Z,0.00
2018-12-23T03:56:49.408Z,0.00
2018-12-23T03:57:49.905Z,0.00
2018-12-23T03:58:50.442Z,0.00
2018-12-23T03:59:50.931Z,0.00
2018-12-23T04:00:51.474Z,0.00
2018-12-23T04:01:51.945Z,0.00
2018-12-23T04:02:52.517Z,0.00
2018-12-23T04:03:52.998Z,0.00
2018-12-23T04:04:53.486Z,0.00
2018-12-23T04:05:54.073Z,0.00
2018-12-23T04:06:54.558Z,0.00
2018-12-23T04:07:55.126Z,0.00
2018-12-23T04:08:55.596Z,0.00
2018-12-23T04:09:58.192Z,0.00
2018-12-23T04:10:58.740Z,0.00
2018-12-23T04:12:00.252Z,0.00
2018-12-23T04:13:00.737Z,0.00
2018-12-23T04:14:03.341Z,0.00
2018-12-23T04:15:03.828Z,0.00
2018-12-23T04:16:04.376Z,0.00
2018-12-23T04:17:04.864Z,0.00
2018-12-23T04:18:20.386Z,0.00
2018-12-23T04:19:20.864Z,0.00
2018-12-23T04:20:22.449Z,0.00
2018-12-23T04:21:22.940Z,0.00
2018-12-23T04:22:23.467Z,0.00
2018-12-23T04:23:23.982Z,0.00
2018-12-23T04:24:24.452Z,0.00
2018-12-23T04:25:24.957Z,0.00
2018-12-23T04:26:26.447Z,0.00
2018-12-23T04:27:26.918Z,0.00
2018-12-23T04:28:27.475Z,0.00
2018-12-23T04:29:27.973Z,0.00
2018-12-23T04:30:29.552Z,0.00
2018-12-23T04:31:30.055Z,0.00
2018-12-23T04:32:30.573Z,0.00
2018-12-23T04:33:31.052Z,0.00
2018-12-23T04:34:31.531Z,0.00
2018-12-23T04:35:32.029Z,0.00
2018-12-23T04:36:34.191Z,0.00
2018-12-23T04:37:33.072Z,0.00
2018-12-23T04:38:33.558Z,0.00
2018-12-23T04:39:34.061Z,0.00
2018-12-23T04:40:34.733Z,0.00
2018-12-23T04:41:35.207Z,0.00
2018-12-23T04:42:35.690Z,0.00
2018-12-23T04:43:36.174Z,0.00
2018-12-23T04:44:36.712Z,0.00
2018-12-23T04:45:37.206Z,0.00
2018-12-23T04:46:37.747Z,0.00
2018-12-23T04:47:38.223Z,0.00
2018-12-23T04:48:38.708Z,0.00
2018-12-23T04:49:39.199Z,0.00
2018-12-23T04:50:39.688Z,0.00
2018-12-23T04:51:40.164Z,0.00
2018-12-23T04:52:40.756Z,0.00
2018-12-23T04:53:41.232Z,0.00
2018-12-23T04:54:41.723Z,0.00
2018-12-23T04:55:42.198Z,0.00
2018-12-23T04:56:42.685Z,0.00
2018-12-23T04:57:43.172Z,0.00
2018-12-23T04:58:43.635Z,0.00
2018-12-23T04:59:44.160Z,0.00
2018-12-23T05:00:44.651Z,0.00
2018-12-23T05:01:45.434Z,0.00
2018-12-23T05:02:45.923Z,0.00
2018-12-23T05:03:46.412Z,0.00
2018-12-23T05:04:46.941Z,0.00
2018-12-23T05:05:47.401Z,0.00
2018-12-23T05:06:47.874Z,0.00
2018-12-23T05:07:48.434Z,0.00
2018-12-23T05:08:48.931Z,0.00
2018-12-23T05:09:49.475Z,0.00
2018-12-23T05:10:49.943Z,0.00
2018-12-23T05:11:50.419Z,0.00
2018-12-23T05:12:50.929Z,0.00
2018-12-23T05:13:51.386Z,0.00
2018-12-23T05:14:53.905Z,0.00
2018-12-23T05:15:54.397Z,0.00
2018-12-23T05:16:54.894Z,0.00
2018-12-23T05:17:55.384Z,0.00
2018-12-23T05:18:56.296Z,0.00
2018-12-23T05:19:56.772Z,0.00
2018-12-23T05:20:57.258Z,0.00
2018-12-23T05:21:57.767Z,0.00
2018-12-23T05:23:00.382Z,0.00
2018-12-23T05:24:00.863Z,0.00
2018-12-23T05:25:02.540Z,0.00
2018-12-23T05:26:03.048Z,0.00
2018-12-23T05:27:03.695Z,0.00
2018-12-23T05:28:04.181Z,0.00
2018-12-23T05:29:19.466Z,0.00
2018-12-23T05:30:19.957Z,0.00
2018-12-23T05:31:29.512Z,0.00
2018-12-23T05:32:29.997Z,0.00
2018-12-23T05:33:30.669Z,0.00
2018-12-23T05:34:31.174Z,0.00
2018-12-23T05:35:31.859Z,0.00
2018-12-23T05:36:32.274Z,0.00
2018-12-23T05:37:32.931Z,0.00
2018-12-23T05:38:33.417Z,0.00
2018-12-23T05:39:36.119Z,0.00
2018-12-23T05:40:36.609Z,0.00
2018-12-23T05:41:38.289Z,0.00
2018-12-23T05:42:38.770Z,0.00
2018-12-23T05:43:41.476Z,0.00
2018-12-23T05:44:41.953Z,0.00
2018-12-23T05:45:43.643Z,0.00
2018-12-23T05:46:44.119Z,0.00
2018-12-23T05:47:45.797Z,0.00
2018-12-23T05:48:46.287Z,0.00
2018-12-23T05:50:57.041Z,0.00
2018-12-23T05:51:57.717Z,0.00
2018-12-23T05:52:58.187Z,0.00
2018-12-23T05:54:05.399Z,0.00
2018-12-23T05:55:05.883Z,0.00
2018-12-23T05:56:06.435Z,0.00
2018-12-23T05:57:06.924Z,0.00
2018-12-23T05:58:15.535Z,0.00
2018-12-23T05:59:16.001Z,0.00
2018-12-23T06:00:24.454Z,0.00
2018-12-23T06:01:24.926Z,0.00
2018-12-23T06:02:33.483Z,0.00
2018-12-23T06:03:33.981Z,0.00
2018-12-23T06:04:34.620Z,0.00
2018-12-23T06:05:35.099Z,0.00
2018-12-23T06:07:00.972Z,0.00
2018-12-23T06:07:57.066Z,0.00
2018-12-23T06:09:06.484Z,0.00
2018-12-23T06:10:06.998Z,0.00
2018-12-23T06:11:07.624Z,0.00
2018-12-23T06:12:08.132Z,0.00
2018-12-23T06:13:08.773Z,0.00
2018-12-23T06:14:09.250Z,0.00
2018-12-23T06:15:26.503Z,0.00
2018-12-23T06:16:26.974Z,0.00
2018-12-23T06:17:28.559Z,0.00
2018-12-23T06:18:29.053Z,0.00
2018-12-23T06:19:29.552Z,0.00
2018-12-23T06:20:31.142Z,0.00
2018-12-23T06:21:31.628Z,0.00
2018-12-23T06:22:32.317Z,0.00
2018-12-23T06:23:32.772Z,0.00
2018-12-23T06:24:35.361Z,0.00
2018-12-23T06:25:35.871Z,0.00
2018-12-23T06:26:43.984Z,0.00
2018-12-23T06:27:44.465Z,0.00
2018-12-23T06:28:46.041Z,0.00
2018-12-23T06:29:46.534Z,0.00
2018-12-23T06:30:49.137Z,0.00
2018-12-23T06:31:49.612Z,0.00
2018-12-23T06:32:51.302Z,0.00
2018-12-23T06:33:51.776Z,0.00
2018-12-23T06:34:52.438Z,0.00
2018-12-23T06:35:52.930Z,0.00
2018-12-23T06:36:54.500Z,0.00
2018-12-23T06:37:54.991Z,0.00
2018-12-23T06:38:55.469Z,0.00
2018-12-23T06:39:56.055Z,0.00
2018-12-23T06:40:56.537Z,0.00
2018-12-23T06:41:59.087Z,0.00
2018-12-23T06:42:59.555Z,0.00
2018-12-23T06:44:01.142Z,0.00
2018-12-23T06:45:01.649Z,0.00
2018-12-23T06:46:03.207Z,0.00
2018-12-23T06:47:03.679Z,0.00
2018-12-23T06:48:04.235Z,0.00
2018-12-23T06:49:04.719Z,0.00
2018-12-23T06:50:05.176Z,0.00
2018-12-23T06:51:05.655Z,0.00
2018-12-23T06:52:06.151Z,0.00
2018-12-23T06:53:06.636Z,0.00
2018-12-23T06:54:07.136Z,0.00
2018-12-23T06:55:07.605Z,0.00
2018-12-23T06:56:08.077Z,0.00
2018-12-23T06:57:08.575Z,0.00
2018-12-23T06:58:10.141Z,0.00
2018-12-23T06:59:10.640Z,0.00
2018-12-23T07:00:11.183Z,0.00
2018-12-23T07:01:11.669Z,0.00
2018-12-23T07:02:12.217Z,0.00
2018-12-23T07:03:12.746Z,0.00
2018-12-23T07:04:29.011Z,0.00
2018-12-23T07:05:29.413Z,0.00
2018-12-23T07:06:29.899Z,0.00
2018-12-23T07:07:31.399Z,0.00
2018-12-23T07:08:31.876Z,0.00
2018-12-23T07:09:33.473Z,0.00
2018-12-23T07:10:33.968Z,0.00
2018-12-23T07:11:36.603Z,0.00
2018-12-23T07:12:37.025Z,0.00
2018-12-23T07:13:37.543Z,0.00
2018-12-23T07:14:38.105Z,0.00
2018-12-23T07:15:38.592Z,0.00
2018-12-23T07:16:39.139Z,0.00
2018-12-23T07:17:39.681Z,0.00
2018-12-23T07:18:40.204Z,0.00
2018-12-23T07:19:40.660Z,0.00
2018-12-23T07:20:41.122Z,0.00
2018-12-23T07:21:41.695Z,0.00
2018-12-23T07:22:42.414Z,0.00
2018-12-23T07:23:42.915Z,0.00
2018-12-23T07:24:43.667Z,0.00
2018-12-23T07:25:44.390Z,0.00
2018-12-23T07:26:45.099Z,0.00
2018-12-23T07:27:45.641Z,0.00
2018-12-23T07:28:46.113Z,0.00
2018-12-23T07:29:46.610Z,0.00
2018-12-23T07:30:47.261Z,0.00
2018-12-23T07:31:48.287Z,0.00
2018-12-23T07:32:48.948Z,0.00
2018-12-23T07:33:49.613Z,0.00
2018-12-23T07:34:50.253Z,0.00
2018-12-23T07:35:50.904Z,0.00
2018-12-23T07:36:51.559Z,0.00
2018-12-23T07:37:52.375Z,0.00
2018-12-23T07:38:53.059Z,0.00
2018-12-23T07:39:53.691Z,4.00
2018-12-23T07:40:54.464Z,4.00
2018-12-23T07:41:55.105Z,4.00
2018-12-23T07:42:55.752Z,4.00
2018-12-23T07:43:56.541Z,4.00
2018-12-23T07:44:57.162Z,4.00
2018-12-23T07:45:57.849Z,0.00
2018-12-23T07:46:58.466Z,0.00
2018-12-23T07:47:59.173Z,4.00
2018-12-23T07:48:59.850Z,4.00
2018-12-23T07:50:02.582Z,4.00
2018-12-23T07:51:03.231Z,4.00
2018-12-23T07:52:03.865Z,4.00
2018-12-23T07:53:05.568Z,4.00
2018-12-23T07:54:06.526Z,4.00
2018-12-23T07:55:09.248Z,4.00
2018-12-23T07:56:09.935Z,4.00
2018-12-23T07:57:11.631Z,4.00
2018-12-23T07:58:12.305Z,8.00
2018-12-23T07:59:20.958Z,4.00
2018-12-23T08:00:21.612Z,4.00
2018-12-23T08:01:23.343Z,8.00
2018-12-23T08:02:24.004Z,8.00
2018-12-23T08:03:25.695Z,4.00
2018-12-23T08:04:26.345Z,8.00
2018-12-23T08:05:27.043Z,8.00
2018-12-23T08:06:27.694Z,8.00
2018-12-23T08:07:36.076Z,4.00
2018-12-23T08:08:31.110Z,8.00
2018-12-23T08:09:33.825Z,8.00
2018-12-23T08:10:34.469Z,8.00
2018-12-23T08:11:35.153Z,8.00
2018-12-23T08:12:35.814Z,8.00
2018-12-23T08:13:36.509Z,12.00
2018-12-23T08:14:37.167Z,12.00
2018-12-23T08:15:45.520Z,8.00
2018-12-23T08:16:46.202Z,8.00
2018-12-23T08:17:55.486Z,12.00
2018-12-23T08:18:56.139Z,8.00
2018-12-23T08:19:56.813Z,12.00
2018-12-23T08:20:57.466Z,16.00
2018-12-23T08:23:09.645Z,16.00
2018-12-23T08:24:10.303Z,12.00
2018-12-23T08:25:10.946Z,16.00
2018-12-23T08:26:11.707Z,16.00
2018-12-23T08:27:12.390Z,12.00
2018-12-23T08:28:13.163Z,12.00
2018-12-23T08:29:13.809Z,16.00
2018-12-23T08:30:15.521Z,16.00
2018-12-23T08:31:16.201Z,16.00
2018-12-23T08:32:17.895Z,16.00
2018-12-23T08:33:18.555Z,12.00
2018-12-23T08:34:19.210Z,16.00
2018-12-23T08:35:19.971Z,20.00
2018-12-23T08:36:20.605Z,20.00
2018-12-23T08:37:21.368Z,24.00
2018-12-23T08:38:21.999Z,24.00
2018-12-23T08:39:23.711Z,24.00
2018-12-23T08:40:24.367Z,24.00
2018-12-23T08:41:25.063Z,24.00
2018-12-23T08:42:25.707Z,24.00
2018-12-23T08:43:26.379Z,20.00
2018-12-23T08:44:27.135Z,16.00
2018-12-23T08:45:27.781Z,16.00
2018-12-23T08:46:28.475Z,20.00
2018-12-23T08:47:29.122Z,20.00
2018-12-23T08:48:46.411Z,24.00
2018-12-23T08:49:47.065Z,24.00
2018-12-23T08:50:48.776Z,24.00
2018-12-23T08:51:49.421Z,20.00
2018-12-23T08:52:50.900Z,32.00
2018-12-23T08:53:51.252Z,32.00
2018-12-23T08:54:58.883Z,28.00
2018-12-23T08:55:59.549Z,28.00
2018-12-23T08:57:01.280Z,32.00
2018-12-23T08:58:01.905Z,32.00
2018-12-23T08:59:02.594Z,24.00
2018-12-23T09:00:03.264Z,32.00
2018-12-23T09:01:10.904Z,28.00
2018-12-23T09:02:11.573Z,28.00
2018-12-23T09:03:19.925Z,28.00
2018-12-23T09:04:20.588Z,36.00
2018-12-23T09:05:22.285Z,36.00
2018-12-23T09:06:23.014Z,32.00
2018-12-23T09:07:30.422Z,36.00
2018-12-23T09:08:31.054Z,36.00
2018-12-23T09:09:38.401Z,40.00
2018-12-23T09:10:39.063Z,48.00
2018-12-23T09:11:47.942Z,44.00
2018-12-23T09:12:48.602Z,36.00
2018-12-23T09:13:49.292Z,44.00
2018-12-23T09:14:49.958Z,44.00
2018-12-23T09:15:51.644Z,52.00
2018-12-23T09:16:52.306Z,60.00
2018-12-23T09:17:54.016Z,44.00
2018-12-23T09:18:54.671Z,44.00
2018-12-23T09:20:01.927Z,56.00
2018-12-23T09:21:02.572Z,52.00
2018-12-23T09:22:05.316Z,60.00
2018-12-23T09:23:05.964Z,64.00
2018-12-23T09:24:13.921Z,64.00
2018-12-23T09:25:14.591Z,64.00
2018-12-23T09:26:22.911Z,68.00
2018-12-23T09:27:23.724Z,68.00
2018-12-23T09:28:26.405Z,80.00
2018-12-23T09:29:27.052Z,84.00
2018-12-23T09:30:35.481Z,80.00
2018-12-23T09:31:36.084Z,84.00
2018-12-23T09:32:36.860Z,96.00
2018-12-23T09:33:37.488Z,96.00
2018-12-23T09:34:40.291Z,112.00
2018-12-23T09:35:40.923Z,108.00
2018-12-23T09:36:42.603Z,100.00
2018-12-23T09:37:43.259Z,92.00
2018-12-23T09:38:44.970Z,108.00
2018-12-23T09:39:45.626Z,116.00
2018-12-23T09:40:46.265Z,100.00
2018-12-23T09:41:46.941Z,112.00
2018-12-23T09:42:49.602Z,124.00
2018-12-23T09:43:50.257Z,128.00
2018-12-23T09:44:51.062Z,128.00
2018-12-23T09:45:51.708Z,116.00
2018-12-23T09:46:52.406Z,88.00
2018-12-23T09:47:53.047Z,88.00
2018-12-23T09:48:53.722Z,88.00
2018-12-23T09:49:54.501Z,84.00
2018-12-23T09:50:55.129Z,92.00
2018-12-23T09:51:55.908Z,88.00
2018-12-23T09:52:56.567Z,72.00
2018-12-23T09:53:57.203Z,68.00
2018-12-23T09:54:58.999Z,68.00
2018-12-23T09:55:59.654Z,80.00
2018-12-23T09:57:00.342Z,92.00
2018-12-23T09:58:01.096Z,116.00
2018-12-23T09:59:01.782Z,120.00
2018-12-23T10:00:02.428Z,104.00
2018-12-23T10:01:03.087Z,108.00
2018-12-23T10:02:03.732Z,104.00
2018-12-23T10:03:04.447Z,84.00
2018-12-23T10:04:05.098Z,68.00
2018-12-23T10:05:05.754Z,76.00
2018-12-23T10:06:06.401Z,76.00
2018-12-23T10:07:07.050Z,80.00
2018-12-23T10:08:10.331Z,64.00
2018-12-23T10:09:08.363Z,72.00
2018-12-23T10:10:09.005Z,68.00
2018-12-23T10:11:09.721Z,92.00
2018-12-23T10:12:10.325Z,80.00
2018-12-23T10:13:11.070Z,80.00
2018-12-23T10:14:11.742Z,92.00
2018-12-23T10:15:12.511Z,84.00
2018-12-23T10:16:13.152Z,100.00
2018-12-23T10:17:13.847Z,112.00
2018-12-23T10:18:14.492Z,112.00
2018-12-23T10:19:15.192Z,108.00
2018-12-23T10:20:15.835Z,104.00
2018-12-23T10:21:17.558Z,112.00
2018-12-23T10:22:18.204Z,116.00
2018-12-23T10:23:18.900Z,116.00
2018-12-23T10:24:19.548Z,120.00
2018-12-23T10:25:20.198Z,116.00
2018-12-23T10:26:21.890Z,96.00
2018-12-23T10:27:22.536Z,88.00
2018-12-23T10:28:23.189Z,88.00
2018-12-23T10:29:23.957Z,84.00
2018-12-23T10:30:24.611Z,84.00
2018-12-23T10:31:26.326Z,72.00
2018-12-23T10:32:26.977Z,64.00
2018-12-23T10:33:27.682Z,72.00
2018-12-23T10:34:28.332Z,60.00
2018-12-23T10:35:28.976Z,64.00
2018-12-23T10:36:29.841Z,68.00
2018-12-23T10:37:30.494Z,72.00
2018-12-23T10:38:31.197Z,48.00
2018-12-23T10:39:31.839Z,40.00
2018-12-23T10:40:32.493Z,40.00
2018-12-23T10:41:33.192Z,52.00
2018-12-23T10:42:33.839Z,68.00
2018-12-23T10:43:34.496Z,76.00
2018-12-23T10:44:35.150Z,68.00
2018-12-23T10:45:35.842Z,80.00
2018-12-23T10:46:36.507Z,80.00
2018-12-23T10:47:37.143Z,88.00
2018-12-23T10:48:37.919Z,84.00
2018-12-23T10:49:38.567Z,104.00
2018-12-23T10:50:39.212Z,100.00
2018-12-23T10:51:39.870Z,104.00
2018-12-23T10:52:40.525Z,100.00
2018-12-23T10:53:41.168Z,108.00
2018-12-23T10:54:41.837Z,100.00
2018-12-23T10:55:42.478Z,100.00
2018-12-23T10:56:43.142Z,104.00
2018-12-23T10:57:43.789Z,92.00
2018-12-23T10:58:44.453Z,76.00
2018-12-23T10:59:45.093Z,76.00
2018-12-23T11:00:45.767Z,76.00
2018-12-23T11:01:46.431Z,76.00
2018-12-23T11:02:47.085Z,84.00
2018-12-23T11:03:47.749Z,88.00
2018-12-23T11:04:48.467Z,76.00
2018-12-23T11:05:49.067Z,96.00
2018-12-23T11:06:49.726Z,92.00
2018-12-23T11:07:51.400Z,108.00
2018-12-23T11:08:52.053Z,116.00
2018-12-23T11:09:52.704Z,116.00
2018-12-23T11:10:53.663Z,132.00
2018-12-23T11:11:54.311Z,120.00
2018-12-23T11:12:54.963Z,108.00
2018-12-23T11:13:55.624Z,112.00
2018-12-23T11:14:56.308Z,120.00
2018-12-23T11:15:56.930Z,112.00
2018-12-23T11:16:57.662Z,100.00
2018-12-23T11:17:58.253Z,92.00
2018-12-23T11:18:58.903Z,84.00
2018-12-23T11:19:59.561Z,80.00
2018-12-23T11:21:00.216Z,72.00
2018-12-23T11:22:01.075Z,72.00
2018-12-23T11:23:01.736Z,72.00
2018-12-23T11:24:03.335Z,68.00
2018-12-23T11:26:11.336Z,44.00
2018-12-23T11:27:11.858Z,40.00
2018-12-23T11:32:05.860Z,52.00
2018-12-23T11:33:06.359Z,64.00
2018-12-23T11:34:06.894Z,72.00
2018-12-23T11:35:07.382Z,64.00
2018-12-23T11:36:07.931Z,68.00
2018-12-23T11:37:08.427Z,68.00
2018-12-23T11:38:08.947Z,60.00
2018-12-23T11:39:09.434Z,60.00
2018-12-23T11:40:09.989Z,72.00
2018-12-23T11:41:10.468Z,84.00
2018-12-23T11:42:11.071Z,72.00
2018-12-23T11:43:11.498Z,76.00
2018-12-23T11:44:12.062Z,76.00
2018-12-23T11:45:12.547Z,72.00
2018-12-23T11:46:13.095Z,80.00
2018-12-23T11:47:13.585Z,80.00
2018-12-23T11:48:15.156Z,68.00
2018-12-23T11:49:15.641Z,68.00
2018-12-23T11:50:16.207Z,68.00
2018-12-23T11:51:16.680Z,68.00
2018-12-23T11:52:17.233Z,72.00
2018-12-23T11:53:17.724Z,68.00
2018-12-23T11:54:18.271Z,68.00
2018-12-23T11:55:18.847Z,64.00
2018-12-23T11:56:34.877Z,68.00
2018-12-23T11:57:35.377Z,64.00
2018-12-23T11:58:51.371Z,60.00
2018-12-23T11:59:51.872Z,56.00
2018-12-23T12:00:54.462Z,56.00
2018-12-23T12:01:54.960Z,60.00
2018-12-23T12:03:02.465Z,56.00
2018-12-23T12:04:02.955Z,56.00
2018-12-23T12:05:03.506Z,60.00
2018-12-23T12:06:03.999Z,64.00
2018-12-23T12:07:04.535Z,68.00
2018-12-23T12:08:05.011Z,72.00
2018-12-23T12:09:07.085Z,72.00
2018-12-23T12:10:07.072Z,72.00
2018-12-23T12:11:09.585Z,72.00
2018-12-23T12:12:10.074Z,68.00
2018-12-23T12:13:11.646Z,60.00
2018-12-23T12:14:12.144Z,60.00
2018-12-23T12:15:27.436Z,56.00
2018-12-23T12:16:27.923Z,52.00
2018-12-23T12:17:28.467Z,56.00
2018-12-23T12:18:28.961Z,60.00
2018-12-23T12:19:30.535Z,60.00
2018-12-23T12:20:31.021Z,60.00
2018-12-23T12:21:33.623Z,52.00
2018-12-23T12:22:34.115Z,44.00
2018-12-23T12:23:34.661Z,40.00
2018-12-23T12:24:35.134Z,36.00
2018-12-23T12:25:36.721Z,32.00
2018-12-23T12:26:37.199Z,28.00
2018-12-23T12:27:45.442Z,36.00
2018-12-23T12:28:45.935Z,36.00
2018-12-23T12:29:46.473Z,32.00
2018-12-23T12:30:46.965Z,28.00
2018-12-23T12:31:48.539Z,32.00
2018-12-23T12:32:49.025Z,32.00
2018-12-23T12:33:49.571Z,36.00
2018-12-23T12:34:50.064Z,40.00
2018-12-23T12:35:57.474Z,40.00
2018-12-23T12:36:57.950Z,40.00
2018-12-23T12:38:00.459Z,44.00
2018-12-23T12:39:00.954Z,44.00
2018-12-23T12:40:03.550Z,40.00
2018-12-23T12:41:04.031Z,36.00
2018-12-23T12:42:05.602Z,36.00
2018-12-23T12:43:06.093Z,40.00
2018-12-23T12:44:15.449Z,44.00
2018-12-23T12:45:15.941Z,52.00
2018-12-23T12:46:24.619Z,52.00
2018-12-23T12:47:24.970Z,56.00
2018-12-23T12:48:25.465Z,60.00
2018-12-23T12:49:25.952Z,64.00
2018-12-23T12:50:26.506Z,64.00
2018-12-23T12:51:26.985Z,64.00
2018-12-23T12:52:27.544Z,64.00
2018-12-23T12:53:28.024Z,68.00
2018-12-23T12:54:28.579Z,68.00
2018-12-23T12:55:29.050Z,64.00
2018-12-23T12:56:29.614Z,64.00
2018-12-23T12:57:30.092Z,52.00
2018-12-23T12:58:32.599Z,48.00
2018-12-23T12:59:33.084Z,44.00
2018-12-23T13:00:33.655Z,40.00
2018-12-23T13:01:34.144Z,36.00
2018-12-23T13:02:34.672Z,36.00
2018-12-23T13:03:35.153Z,44.00
2018-12-23T13:04:35.723Z,44.00
2018-12-23T13:05:36.204Z,48.00
2018-12-23T13:06:38.807Z,44.00
2018-12-23T13:07:39.290Z,40.00
2018-12-23T13:08:46.393Z,36.00
2018-12-23T13:09:46.883Z,36.00
2018-12-23T13:10:55.934Z,40.00
2018-12-23T13:11:56.417Z,40.00
2018-12-23T13:26:38.222Z,28.00
2018-12-23T13:27:38.617Z,24.00
2018-12-23T13:30:32.725Z,20.00
2018-12-23T13:31:33.214Z,20.00
2018-12-23T13:34:27.326Z,24.00
2018-12-23T13:35:27.917Z,24.00
2018-12-23T13:38:22.128Z,24.00
2018-12-23T13:39:22.732Z,20.00
2018-12-23T13:40:23.206Z,16.00
2018-12-23T13:41:23.762Z,20.00
2018-12-23T13:42:24.322Z,28.00
2018-12-23T13:43:24.792Z,24.00
2018-12-23T13:44:25.271Z,24.00
2018-12-23T13:45:25.837Z,24.00
2018-12-23T13:46:26.308Z,28.00
2018-12-23T13:47:26.874Z,28.00
2018-12-23T13:48:27.352Z,32.00
2018-12-23T13:49:27.910Z,28.00
2018-12-23T13:50:28.390Z,24.00